Time,TemperatureF,DewpointF,PressureIn,WindDirection,WindDirectionDegrees,WindSpeedMPH,WindSpeedGustMPH,Humidity,HourlyPrecipIn,Conditions,Clouds,dailyrainin,SolarRadiationWatts/m^2,SoftwareType,DateUTC
2013-07-06 00:03:00,75.6,73.4,30.12,ESE,115,0.0,3.0,93,0.02,,---,0.00,0.00,VWS V14.01,2013-07-06 04:03:00,
2013-07-06 00:33:00,75.7,73.5,30.11,ESE,115,0.0,2.0,93,0.00,,---,0.00,0.00,VWS V14.01,2013-07-06 04:33:00,
2013-07-06 01:03:00,75.6,73.4,30.11,ESE,115,1.0,3.0,93,0.00,,---,0.00,0.00,VWS V14.01,2013-07-06 05:03:00,
2013-07-06 01:33:00,75.9,73.7,30.11,ESE,118,0.0,7.0,93,0.00,,---,0.00,0.00,VWS V14.01,2013-07-06 05:33:00,
2013-07-06 02:03:00,75.9,73.7,30.10,ESE,115,0.0,3.0,93,0.00,,---,0.00,0.00,VWS V14.01,2013-07-06 06:03:00,
2013-07-06 02:33:00,75.7,73.5,30.08,ESE,115,0.0,1.0,93,0.00,,---,0.00,0.00,VWS V14.01,2013-07-06 06:33:00,
2013-07-06 03:03:00,75.5,73.3,30.08,ESE,115,0.0,1.0,93,0.00,,---,0.00,0.00,VWS V14.01,2013-07-06 07:03:00,
2013-07-06 03:33:00,75.5,73.3,30.07,ESE,114,0.0,3.0,93,0.00,,---,0.00,0.00,VWS V14.01,2013-07-06 07:33:00,
2013-07-06 04:03:00,75.6,73.4,30.06,ESE,107,3.0,5.0,93,0.00,,---,0.00,0.00,VWS V14.01,2013-07-06 08:03:00,
2013-07-06 04:33:00,75.7,73.5,30.07,ESE,107,0.0,3.0,93,0.00,,---,0.00,0.00,VWS V14.01,2013-07-06 08:33:00,
2013-07-06 05:03:00,75.4,73.2,30.07,ESE,107,0.0,0.0,93,0.00,,---,0.00,0.00,VWS V14.01,2013-07-06 09:03:00,
2013-07-06 05:33:00,75.1,72.9,30.06,ESE,107,0.0,0.0,93,0.00,,---,0.00,0.00,VWS V14.01,2013-07-06 09:33:00,
2013-07-06 06:03:00,75.1,73.3,30.06,ESE,107,0.0,0.0,94,0.00,,---,0.00,0.00,VWS V14.01,2013-07-06 10:03:00,
2013-07-06 06:33:00,75.4,73.2,30.06,ESE,107,0.0,2.0,93,0.00,,---,0.00,0.00,VWS V14.01,2013-07-06 10:33:00,
2013-07-06 07:03:00,75.7,73.5,30.07,ESE,107,0.0,3.0,93,0.00,,---,0.00,16.00,VWS V14.01,2013-07-06 11:03:00,
2013-07-06 07:33:00,76.7,73.9,30.07,ESE,113,3.0,5.0,91,0.01,,---,0.01,37.00,VWS V14.01,2013-07-06 11:33:00,
2013-07-06 08:03:00,78.3,74.8,30.08,SE,125,4.0,10.0,89,0.01,,---,0.01,47.00,VWS V14.01,2013-07-06 12:03:00,
2013-07-06 08:33:00,80.2,75.6,30.09,ESE,114,3.0,9.0,86,0.01,,---,0.01,323.00,VWS V14.01,2013-07-06 12:33:00,
2013-07-06 09:03:00,82.3,76.3,30.10,ESE,123,5.0,10.0,82,0.00,,---,0.01,429.00,VWS V14.01,2013-07-06 13:03:00,
2013-07-06 09:33:00,83.7,76.5,30.10,East,82,2.0,11.0,79,0.00,,---,0.01,510.00,VWS V14.01,2013-07-06 13:33:00,
2013-07-06 10:03:00,85.1,77.1,30.11,SE,144,9.0,12.0,77,0.00,,---,0.01,605.00,VWS V14.01,2013-07-06 14:03:00,
2013-07-06 10:33:00,85.0,76.2,30.11,SE,133,5.0,12.0,75,0.00,,---,0.01,357.00,VWS V14.01,2013-07-06 14:33:00,
2013-07-06 11:03:00,86.1,76.8,30.11,ESE,109,5.0,16.0,74,0.00,,---,0.01,788.00,VWS V14.01,2013-07-06 15:03:00,
2013-07-06 11:33:00,87.1,76.6,30.12,ENE,78,7.0,17.0,71,0.00,,---,0.01,744.00,VWS V14.01,2013-07-06 15:33:00,
2013-07-06 12:33:00,83.6,76.0,30.11,East,84,5.0,14.0,78,0.00,,---,0.01,496.00,VWS V14.01,2013-07-06 16:33:00,
2013-07-06 14:03:00,87.0,76.5,30.10,East,98,5.0,17.0,71,0.00,,---,0.01,951.00,VWS V14.01,2013-07-06 18:03:00,
2013-07-06 15:03:00,88.0,77.0,30.09,SE,130,11.0,17.0,70,0.00,,---,0.01,390.00,VWS V14.01,2013-07-06 19:03:00,
2013-07-06 15:33:00,87.1,77.4,30.08,East,94,5.0,15.0,73,0.00,,---,0.01,826.00,VWS V14.01,2013-07-06 19:33:00,
2013-07-06 17:03:00,86.3,77.0,30.06,East,83,4.0,14.0,74,0.00,,---,0.01,598.00,VWS V14.01,2013-07-06 21:03:00,
2013-07-06 17:33:00,84.7,75.1,30.05,SE,127,10.0,17.0,73,0.00,,---,0.01,499.00,VWS V14.01,2013-07-06 21:33:00,
2013-07-06 19:33:00,82.1,75.3,30.06,East,83,3.0,10.0,80,0.00,,---,0.01,33.00,VWS V14.01,2013-07-06 23:33:00,
2013-07-06 20:33:00,80.4,75.5,30.07,ESE,113,0.0,6.0,85,0.00,,---,0.01,0.00,VWS V14.01,2013-07-07 00:33:00,
2013-07-06 21:33:00,79.4,75.2,30.09,ESE,104,1.0,5.0,87,0.00,,---,0.01,0.00,VWS V14.01,2013-07-07 01:33:00,
2013-07-06 22:33:00,79.0,75.5,30.10,ESE,102,1.0,4.0,89,0.00,,---,0.01,0.00,VWS V14.01,2013-07-07 02:33:00,
2013-07-06 23:03:00,79.1,75.2,30.10,ESE,122,0.0,5.0,88,0.00,,---,0.01,0.00,VWS V14.01,2013-07-07 03:03:00,
2013-07-06 23:33:00,78.7,75.2,30.11,ESE,122,0.0,4.0,89,0.00,,---,0.01,0.00,VWS V14.01,2013-07-07 03:33:00,